Time;durP1;ratioP1;P1;durP2;ratioP2;P2;SDS_P1;SDS_P2;PMS_P1;PMS_P2;Temp;Humidity;BMP_temperature;BMP_pressure;BME280_temperature;BME280_humidity;BME280_pressure;Samples;Min_cycle;Max_cycle;Signal;HPM_P1;HPM_P2
2021/08/13 00:00:54;;;;;;;8.27;4.47;;;22.80;80.70;;;;;;5055665;28;20535;-48
2021/08/13 00:03:20;;;;;;;7.85;4.57;;;22.80;80.70;;;;;;5070615;28;20090;-48
2021/08/13 00:05:48;;;;;;;11.57;5.57;;;22.80;80.60;;;;;;5053330;28;20403;-48
2021/08/13 00:08:13;;;;;;;9.77;4.80;;;22.90;80.50;;;;;;5055362;28;20403;-47
2021/08/13 00:10:39;;;;;;;10.07;5.07;;;23.00;80.50;;;;;;5055539;28;20120;-48
2021/08/13 00:13:05;;;;;;;7.97;4.50;;;23.00;80.20;;;;;;5055487;28;20021;-47
2021/08/13 00:15:31;;;;;;;12.13;4.85;;;23.00;80.00;;;;;;5055196;28;20024;-48
2021/08/13 00:17:57;;;;;;;9.60;5.15;;;23.00;79.90;;;;;;5054486;28;20488;-48
2021/08/13 00:20:23;;;;;;;8.00;5.10;;;23.00;79.60;;;;;;5054193;28;20122;-47
2021/08/13 00:22:52;;;;;;;11.35;4.70;;;23.00;80.20;;;;;;5054973;28;20361;-48
2021/08/13 00:25:19;;;;;;;8.25;4.65;;;22.80;80.50;;;;;;5104285;28;20068;-48
2021/08/13 00:27:44;;;;;;;6.18;4.38;;;22.40;82.00;;;;;;5055304;28;20382;-48
2021/08/13 00:30:11;;;;;;;8.60;4.93;;;22.00;83.10;;;;;;5055041;28;20032;-48
2021/08/13 00:32:37;;;;;;;9.70;5.00;;;21.90;83.50;;;;;;5054885;28;20033;-47
2021/08/13 00:35:04;;;;;;;7.95;4.68;;;22.20;83.00;;;;;;5055080;28;20382;-48
2021/08/13 00:37:31;;;;;;;7.03;4.47;;;22.30;83.00;;;;;;5054767;28;20473;-48
2021/08/13 00:39:57;;;;;;;7.38;4.65;;;22.30;82.90;;;;;;5069641;28;20534;-47
2021/08/13 00:42:22;;;;;;;6.97;4.68;;;22.40;82.60;;;;;;5055007;28;20029;-48
2021/08/13 00:44:48;;;;;;;9.35;5.65;;;22.60;82.30;;;;;;5054905;28;20113;-47
2021/08/13 00:47:14;;;;;;;10.02;5.18;;;22.60;81.80;;;;;;5069748;28;20381;-47
2021/08/13 00:49:40;;;;;;;6.88;4.75;;;22.70;81.50;;;;;;5054772;28;20029;-47
2021/08/13 00:52:06;;;;;;;8.82;4.63;;;22.80;81.30;;;;;;5069779;28;20036;-48
2021/08/13 00:54:31;;;;;;;8.52;4.60;;;22.80;81.30;;;;;;5036666;28;20366;-48
2021/08/13 00:56:58;;;;;;;8.80;4.43;;;22.80;80.60;;;;;;5054528;28;20472;-48
2021/08/13 00:59:24;;;;;;;8.85;4.70;;;22.90;80.30;;;;;;5069286;28;20040;-48
2021/08/13 01:01:50;;;;;;;6.10;4.57;;;22.90;80.20;;;;;;5054613;28;20029;-48
2021/08/13 01:04:15;;;;;;;7.18;4.40;;;22.80;80.50;;;;;;5054500;28;20051;-47
2021/08/13 01:06:41;;;;;;;7.30;4.78;;;22.80;79.80;;;;;;5054330;28;20049;-48
2021/08/13 01:09:07;;;;;;;12.63;5.18;;;22.80;79.80;;;;;;5054374;28;20025;-48
2021/08/13 01:11:57;;;;;;;6.07;4.72;;;22.80;79.60;;;;;;5103267;28;20037;-48
2021/08/13 01:14:34;;;;;;;11.73;4.65;;;22.90;79.90;;;;;;5054248;28;20025;-48
2021/08/13 01:17:01;;;;;;;9.60;5.13;;;22.80;80.00;;;;;;5054018;28;20381;-48
2021/08/13 01:19:50;;;;;;;7.68;4.50;;;22.10;81.70;;;;;;5069639;28;20094;-48
2021/08/13 01:22:33;;;;;;;6.85;5.00;;;22.10;82.20;;;;;;5054359;28;20024;-47
2021/08/13 01:25:02;;;;;;;8.70;4.85;;;22.00;82.40;;;;;;5067617;28;20396;-48
2021/08/13 01:27:32;;;;;;;6.15;4.63;;;21.70;82.80;;;;;;5069227;28;20059;-47
2021/08/13 01:30:13;;;;;;;7.28;5.05;;;21.70;83.10;;;;;;5053880;28;20480;-48
2021/08/13 01:32:41;;;;;;;7.95;5.28;;;21.70;83.20;;;;;;5054942;28;20412;-48
2021/08/13 01:35:30;;;;;;;8.48;5.50;;;21.90;82.90;;;;;;5071741;28;20043;-47
2021/08/13 01:38:01;;;;;;;9.85;5.47;;;21.60;83.10;;;;;;5071775;28;20045;-47
2021/08/13 01:40:28;;;;;;;;;;;21.20;84.90;;;;;;5071983;28;20028;-48
2021/08/13 01:42:55;;;;;;;7.55;5.57;;;21.30;84.90;;;;;;5071937;28;19904;-47
2021/08/13 01:45:25;;;;;;;6.38;5.03;;;21.40;84.90;;;;;;5071888;28;20028;-48
2021/08/13 01:47:53;;;;;;;8.45;5.35;;;21.40;84.80;;;;;;5071670;28;20041;-48
2021/08/13 01:50:20;;;;;;;9.45;6.07;;;21.60;83.90;;;;;;5071721;28;20396;-47
2021/08/13 01:52:49;;;;;;;9.10;5.85;;;21.30;84.40;;;;;;5071503;28;20032;-47
2021/08/13 01:55:15;;;;;;;7.88;5.95;;;20.80;85.80;;;;;;5071490;28;20059;-47
2021/08/13 01:57:44;;;;;;;11.02;5.68;;;20.60;87.10;;;;;;5038097;28;20522;-47
2021/08/13 02:00:14;;;;;;;9.55;5.50;;;20.70;87.00;;;;;;5071593;28;20515;-48
2021/08/13 02:02:40;;;;;;;8.25;5.57;;;20.80;86.80;;;;;;5069648;28;20114;-47
2021/08/13 02:05:07;;;;;;;8.80;5.80;;;20.80;86.60;;;;;;5053016;28;20035;-47
2021/08/13 02:07:37;;;;;;;9.10;5.80;;;20.60;87.20;;;;;;5034801;28;20056;-48
2021/08/13 02:10:09;;;;;;;7.53;5.80;;;20.50;87.60;;;;;;5052061;28;20025;-48
2021/08/13 02:12:35;;;;;;;;;;;20.40;87.80;;;;;;5031718;28;20116;-47
2021/08/13 02:15:01;;;;;;;8.77;5.53;;;20.40;88.30;;;;;;5031332;28;20040;-47
2021/08/13 02:17:29;;;;;;;8.93;6.03;;;20.30;88.70;;;;;;5031172;28;20088;-47
2021/08/13 02:20:07;;;;;;;7.50;4.95;;;20.30;88.80;;;;;;5031329;28;20050;-47
2021/08/13 02:22:34;;;;;;;10.43;5.82;;;20.40;88.60;;;;;;5030801;28;20041;-48
2021/08/13 02:25:00;;;;;;;9.52;5.78;;;20.60;88.00;;;;;;5031455;28;20122;-48
2021/08/13 02:27:26;;;;;;;7.03;5.00;;;20.90;87.40;;;;;;5031324;28;20025;-47
2021/08/13 02:29:53;;;;;;;8.32;5.20;;;21.20;86.30;;;;;;5031215;28;20056;-48
2021/08/13 02:32:19;;;;;;;6.93;5.05;;;20.90;86.40;;;;;;5031629;28;20029;-47
2021/08/13 02:34:45;;;;;;;7.20;5.25;;;20.50;87.00;;;;;;5031040;28;20040;-47
2021/08/13 02:37:42;;;;;;;7.93;5.75;;;20.30;88.00;;;;;;5031089;28;20447;-47
2021/08/13 02:40:15;;;;;;;7.28;5.32;;;20.10;88.80;;;;;;5029131;28;20044;-48
2021/08/13 02:42:46;;;;;;;8.10;5.43;;;19.80;90.10;;;;;;5028397;28;20043;-47
2021/08/13 02:45:17;;;;;;;9.77;6.18;;;19.60;90.50;;;;;;5031058;28;20455;-48
2021/08/13 02:47:43;;;;;;;8.52;5.25;;;19.70;93.80;;;;;;5030916;28;20071;-48
2021/08/13 02:50:11;;;;;;;8.57;5.10;;;19.40;91.30;;;;;;5043141;28;20385;-47
2021/08/13 02:52:44;;;;;;;8.73;5.55;;;19.60;90.90;;;;;;5051692;28;20037;-47
2021/08/13 02:55:15;;;;;;;7.07;5.03;;;19.70;90.60;;;;;;5053113;28;20376;-48
2021/08/13 02:57:42;;;;;;;7.32;4.93;;;20.10;90.30;;;;;;5068474;28;20048;-48
2021/08/13 03:00:08;;;;;;;9.20;5.25;;;20.40;89.20;;;;;;5053012;28;20102;-47
2021/08/13 03:02:35;;;;;;;7.85;5.00;;;20.10;89.60;;;;;;5024769;28;20071;-47
2021/08/13 03:05:03;;;;;;;7.60;5.35;;;20.10;89.90;;;;;;5067781;28;20063;-47
2021/08/13 03:07:29;;;;;;;8.57;4.88;;;20.10;89.90;;;;;;5051072;28;20045;-48
2021/08/13 03:09:56;;;;;;;12.30;5.28;;;19.90;90.10;;;;;;5053002;28;20481;-47
2021/08/13 03:12:23;;;;;;;11.10;5.32;;;19.90;90.30;;;;;;5053197;28;20036;-47
2021/08/13 03:14:50;;;;;;;8.80;6.10;;;19.90;90.20;;;;;;5052719;28;20025;-48
2021/08/13 03:17:17;;;;;;;9.68;5.88;;;19.70;90.60;;;;;;5054780;28;20029;-47
2021/08/13 03:19:44;;;;;;;7.80;5.50;;;19.70;90.50;;;;;;5071552;28;20370;-48
2021/08/13 03:22:10;;;;;;;9.23;5.90;;;19.70;93.40;;;;;;5056161;28;20070;-48
2021/08/13 03:24:36;;;;;;;7.03;5.38;;;19.50;92.20;;;;;;5056235;28;20048;-47
2021/08/13 03:27:03;;;;;;;10.88;5.47;;;19.40;91.70;;;;;;5056245;28;20032;-48
2021/08/13 03:29:29;;;;;;;8.43;5.53;;;19.30;91.50;;;;;;5056395;28;20025;-47
2021/08/13 03:32:00;;;;;;;7.97;5.30;;;19.20;91.70;;;;;;5071321;28;20036;-47
2021/08/13 03:34:27;;;;;;;7.22;5.70;;;19.10;92.00;;;;;;5071143;28;20037;-47
2021/08/13 03:36:52;;;;;;;10.57;5.78;;;19.00;92.20;;;;;;5056090;28;20033;-47
2021/08/13 03:39:18;;;;;;;6.88;5.63;;;18.90;95.60;;;;;;5055232;28;20107;-47
2021/08/13 03:41:44;;;;;;;9.27;5.22;;;18.80;97.40;;;;;;5054444;28;20415;-47
2021/08/13 03:44:10;;;;;;;8.20;5.05;;;18.70;98.70;;;;;;5054250;28;20037;-47
2021/08/13 03:46:35;;;;;;;8.95;5.80;;;18.60;98.90;;;;;;5071056;28;20048;-48
2021/08/13 03:49:01;;;;;;;6.80;5.57;;;18.50;99.90;;;;;;5056235;28;20029;-47
2021/08/13 03:51:27;;;;;;;9.45;5.53;;;;;;;;;;5054073;28;20029;-47
2021/08/13 03:53:54;;;;;;;7.47;5.43;;;;;;;;;;5037412;28;20124;-48
2021/08/13 03:56:20;;;;;;;6.60;4.85;;;;;;;;;;5070433;28;20033;-47
2021/08/13 03:58:46;;;;;;;9.93;5.50;;;;;;;;;;5053913;28;20064;-48
2021/08/13 04:01:12;;;;;;;10.57;5.60;;;;;;;;;;5054717;28;20032;-48
2021/08/13 04:03:38;;;;;;;9.75;5.80;;;;;;;;;;5055200;28;20056;-47
2021/08/13 04:06:04;;;;;;;7.30;5.85;;;18.50;99.10;;;;;;5055470;28;20086;-47
2021/08/13 04:08:30;;;;;;;10.65;6.32;;;18.80;99.60;;;;;;5055412;28;20029;-47
2021/08/13 04:10:56;;;;;;;9.07;6.03;;;18.70;99.60;;;;;;5055524;28;20500;-47
2021/08/13 04:13:21;;;;;;;9.07;6.15;;;18.80;99.60;;;;;;5070201;28;20496;-48
2021/08/13 04:15:47;;;;;;;12.82;6.47;;;18.90;99.40;;;;;;5055531;28;20029;-47
2021/08/13 04:18:13;;;;;;;14.45;6.47;;;18.90;99.40;;;;;;5055086;28;20063;-47
2021/08/13 04:20:39;;;;;;;8.60;6.00;;;19.00;99.10;;;;;;5070196;28;20033;-48
2021/08/13 04:23:05;;;;;;;11.43;7.15;;;19.00;99.30;;;;;;5055356;28;20047;-47
2021/08/13 04:25:31;;;;;;;10.40;7.07;;;19.00;99.10;;;;;;5069991;28;20450;-47
2021/08/13 04:27:57;;;;;;;10.98;5.75;;;18.90;99.40;;;;;;5054875;28;20061;-47
2021/08/13 04:30:23;;;;;;;8.00;5.38;;;18.60;99.80;;;;;;5055001;28;20060;-47
2021/08/13 04:32:49;;;;;;;8.55;6.28;;;;;;;;;;5055043;28;20032;-47
2021/08/13 04:35:15;;;;;;;10.60;5.50;;;;;;;;;;5069896;28;20033;-48
2021/08/13 04:37:41;;;;;;;7.63;5.88;;;18.40;95.80;;;;;;5053084;28;20044;-47
2021/08/13 04:40:08;;;;;;;7.05;5.70;;;18.40;96.10;;;;;;5055254;28;20029;-47
2021/08/13 04:42:34;;;;;;;9.07;5.85;;;18.70;95.90;;;;;;5053033;28;20533;-47
2021/08/13 04:45:00;;;;;;;8.88;5.43;;;18.90;95.30;;;;;;5054962;28;20033;-47
2021/08/13 04:47:26;;;;;;;7.88;5.32;;;19.10;94.90;;;;;;5054778;28;20533;-47
2021/08/13 04:49:52;;;;;;;11.02;5.65;;;19.40;94.50;;;;;;5054937;28;20029;-48
2021/08/13 04:52:20;;;;;;;9.30;6.00;;;20.00;93.90;;;;;;5055015;28;20032;-47
2021/08/13 04:54:47;;;;;;;10.98;5.72;;;20.40;92.90;;;;;;5054621;28;20503;-47
2021/08/13 04:57:13;;;;;;;9.55;5.50;;;20.60;92.20;;;;;;5054755;28;20056;-47
2021/08/13 04:59:39;;;;;;;9.68;5.50;;;20.80;91.90;;;;;;5054429;28;20431;-48
2021/08/13 05:02:05;;;;;;;10.85;6.22;;;21.10;91.20;;;;;;5054601;28;20120;-47
2021/08/13 05:04:30;;;;;;;9.82;5.55;;;21.40;90.90;;;;;;5054504;28;20029;-47
2021/08/13 05:06:56;;;;;;;10.15;5.93;;;21.50;90.10;;;;;;5052353;28;20045;-48
2021/08/13 05:09:22;;;;;;;8.73;5.50;;;21.30;90.00;;;;;;5054276;28;20025;-48
2021/08/13 05:11:48;;;;;;;6.32;4.70;;;21.30;90.20;;;;;;5052425;28;20029;-48
2021/08/13 05:14:13;;;;;;;7.50;5.18;;;21.30;90.00;;;;;;5054442;28;20071;-47
2021/08/13 05:16:39;;;;;;;8.88;4.65;;;21.40;90.20;;;;;;5053518;28;20045;-48
2021/08/13 05:19:05;;;;;;;8.95;5.18;;;21.30;90.10;;;;;;5053609;28;20033;-47
2021/08/13 05:21:37;;;;;;;7.38;5.70;;;21.40;90.40;;;;;;5068241;28;20087;-47
2021/08/13 05:24:03;;;;;;;12.05;5.35;;;21.70;90.10;;;;;;5053547;28;20468;-47
2021/08/13 05:26:29;;;;;;;8.95;5.40;;;22.10;90.00;;;;;;5052675;28;20082;-47
2021/08/13 05:28:55;;;;;;;6.78;5.00;;;22.30;88.20;;;;;;5053837;28;20024;-48
2021/08/13 05:31:20;;;;;;;9.25;5.63;;;22.30;88.40;;;;;;5052804;28;20465;-48
2021/08/13 05:33:46;;;;;;;7.72;4.97;;;22.30;88.60;;;;;;5053033;28;20017;-48
2021/08/13 05:36:15;;;;;;;9.30;5.45;;;22.50;88.00;;;;;;5067422;28;20037;-47
2021/08/13 05:38:41;;;;;;;9.00;5.50;;;22.90;87.70;;;;;;5050217;28;20047;-48
2021/08/13 05:41:07;;;;;;;9.52;5.72;;;23.20;86.80;;;;;;5050989;28;20029;-48
2021/08/13 05:43:33;;;;;;;9.73;5.00;;;23.60;85.60;;;;;;5053186;28;20028;-48
2021/08/13 05:45:58;;;;;;;12.48;5.60;;;23.80;84.20;;;;;;5050941;28;20499;-48
2021/08/13 05:48:24;;;;;;;9.18;5.72;;;24.00;82.90;;;;;;5067762;28;20404;-49
2021/08/13 05:50:50;;;;;;;11.90;5.53;;;24.10;81.80;;;;;;5053072;28;20075;-46
2021/08/13 05:53:16;;;;;;;18.17;6.22;;;24.30;81.70;;;;;;5052930;28;20021;-49
2021/08/13 05:55:41;;;;;;;8.82;5.60;;;24.50;82.10;;;;;;5052306;28;20028;-48
2021/08/13 05:58:07;;;;;;;10.77;5.40;;;24.70;80.80;;;;;;5051820;28;20052;-47
2021/08/13 06:00:33;;;;;;;10.02;5.63;;;24.80;81.90;;;;;;5052634;28;20043;-48
2021/08/13 06:03:01;;;;;;;11.75;5.68;;;24.80;81.30;;;;;;5052828;28;20025;-49
2021/08/13 06:05:27;;;;;;;8.50;5.80;;;24.90;80.70;;;;;;5052310;28;20067;-50
2021/08/13 06:07:53;;;;;;;8.15;5.22;;;25.10;80.20;;;;;;5067824;28;20033;-48
2021/08/13 06:10:20;;;;;;;8.18;5.13;;;25.20;80.00;;;;;;5008889;28;20080;-48
2021/08/13 06:12:47;;;;;;;5.63;4.50;;;25.20;79.50;;;;;;5033570;28;20059;-48
2021/08/13 06:15:14;;;;;;;14.25;6.10;;;25.30;78.60;;;;;;5046962;28;20025;-48
2021/08/13 06:17:44;;;;;;;9.85;5.10;;;25.40;78.70;;;;;;5052766;28;20086;-49
2021/08/13 06:20:15;;;;;;;11.82;5.70;;;25.70;78.40;;;;;;5052905;28;20025;-48
2021/08/13 06:22:41;;;;;;;11.63;5.28;;;25.90;78.10;;;;;;5052576;28;20481;-47
2021/08/13 06:25:07;;;;;;;9.40;5.95;;;26.00;78.60;;;;;;5051003;28;20079;-47
2021/08/13 06:27:33;;;;;;;11.05;4.97;;;26.00;76.90;;;;;;5018298;28;20029;-48
2021/08/13 06:29:59;;;;;;;10.90;5.30;;;26.10;76.00;;;;;;5053313;28;20120;-48
2021/08/13 06:32:25;;;;;;;10.27;5.28;;;;;;;;;;5052592;28;20108;-48
2021/08/13 06:34:51;;;;;;;9.38;5.65;;;26.40;76.80;;;;;;5052663;28;20452;-49
2021/08/13 06:37:17;;;;;;;7.50;4.93;;;26.50;77.20;;;;;;5052354;28;20086;-48
2021/08/13 06:39:43;;;;;;;9.05;4.63;;;26.60;75.40;;;;;;5052317;28;20069;-47
2021/08/13 06:42:09;;;;;;;10.85;5.03;;;;;;;;;;5017253;28;20392;-47
2021/08/13 06:44:35;;;;;;;11.98;6.57;;;;;;;;;;5052873;28;20126;-48
2021/08/13 06:47:01;;;;;;;35.22;19.05;;;;;;;;;;5053042;28;20029;-47
2021/08/13 06:49:27;;;;;;;29.35;16.95;;;27.10;99.40;;;;;;5053467;28;20037;-49
2021/08/13 06:51:52;;;;;;;11.88;7.88;;;27.40;91.30;;;;;;5056966;28;20350;-49
2021/08/13 06:54:18;;;;;;;9.30;6.70;;;27.50;90.40;;;;;;5054805;28;20144;-47
2021/08/13 06:56:44;;;;;;;10.07;5.75;;;27.40;89.30;;;;;;5037953;28;20040;-47
2021/08/13 06:59:09;;;;;;;9.45;5.43;;;27.50;89.20;;;;;;5005092;28;20041;-48
2021/08/13 07:01:35;;;;;;;9.43;5.22;;;27.70;90.70;;;;;;5054754;28;20048;-48
2021/08/13 07:04:01;;;;;;;8.30;5.97;;;27.80;91.00;;;;;;5038140;28;20067;-48
2021/08/13 07:06:27;;;;;;;7.22;4.97;;;28.00;88.90;;;;;;5054447;28;20061;-47
2021/08/13 07:08:53;;;;;;;7.85;5.35;;;28.00;89.80;;;;;;5054682;28;20043;-49
2021/08/13 07:11:19;;;;;;;10.13;5.25;;;28.10;90.10;;;;;;5054336;28;20033;-48
2021/08/13 07:13:44;;;;;;;7.57;5.28;;;28.10;90.50;;;;;;5054634;28;20143;-46
2021/08/13 07:16:10;;;;;;;8.52;4.78;;;28.20;91.40;;;;;;5054440;28;20063;-47
2021/08/13 07:18:36;;;;;;;7.13;4.45;;;28.30;71.20;;;;;;5037509;28;20543;-47
2021/08/13 07:21:02;;;;;;;7.82;4.70;;;28.30;70.80;;;;;;5054589;28;20033;-48
2021/08/13 07:23:28;;;;;;;7.70;4.47;;;28.50;90.70;;;;;;5054228;28;20064;-47
2021/08/13 07:25:54;;;;;;;8.00;4.50;;;28.60;70.90;;;;;;5055899;28;20075;-49
2021/08/13 07:28:19;;;;;;;7.10;4.40;;;28.80;67.20;;;;;;5071306;28;20083;-48
2021/08/13 07:30:45;;;;;;;6.68;4.18;;;28.70;66.70;;;;;;5056310;28;20037;-48
2021/08/13 07:33:11;;;;;;;7.57;4.07;;;28.60;66.40;;;;;;5054437;28;20420;-48
2021/08/13 07:35:37;;;;;;;8.15;4.30;;;28.60;66.00;;;;;;5055968;28;20064;-48
2021/08/13 07:38:03;;;;;;;11.43;4.28;;;28.90;66.10;;;;;;5056192;28;20048;-48
2021/08/13 07:40:29;;;;;;;6.97;4.25;;;29.00;66.60;;;;;;5056140;28;20036;-47
2021/08/13 07:42:55;;;;;;;9.07;4.63;;;29.20;65.40;;;;;;5056041;28;20060;-49
2021/08/13 07:45:22;;;;;;;10.13;3.80;;;29.20;65.00;;;;;;5055973;28;20064;-49
2021/08/13 07:47:48;;;;;;;9.38;3.63;;;29.50;64.50;;;;;;5054558;28;20440;-48
2021/08/13 07:50:14;;;;;;;6.22;3.38;;;29.50;62.30;;;;;;5056578;28;20035;-49
2021/08/13 07:52:39;;;;;;;7.05;3.53;;;29.70;63.30;;;;;;5055672;28;20108;-48
2021/08/13 07:55:05;;;;;;;7.28;3.70;;;29.80;62.60;;;;;;5054070;28;20080;-48
2021/08/13 07:57:31;;;;;;;6.10;3.90;;;30.00;62.80;;;;;;5000569;28;20437;-48
2021/08/13 07:59:57;;;;;;;6.45;3.75;;;30.00;62.20;;;;;;5055631;28;20155;-49
2021/08/13 08:02:23;;;;;;;5.95;3.08;;;30.20;61.70;;;;;;5069979;28;20118;-48
2021/08/13 08:04:49;;;;;;;8.60;3.33;;;30.20;59.20;;;;;;5055594;28;20033;-47
2021/08/13 08:07:14;;;;;;;8.27;3.70;;;30.40;59.60;;;;;;5055394;28;20053;-47
2021/08/13 08:09:40;;;;;;;6.05;3.47;;;30.50;59.00;;;;;;5055570;28;20029;-49
2021/08/13 08:12:07;;;;;;;5.28;3.17;;;30.50;59.80;;;;;;5070326;28;20483;-49
2021/08/13 08:14:33;;;;;;;4.18;3.15;;;30.50;58.80;;;;;;5055387;28;20480;-49
2021/08/13 08:16:58;;;;;;;5.47;2.92;;;30.50;58.10;;;;;;5053209;28;20143;-47
2021/08/13 08:19:24;;;;;;;3.60;2.80;;;30.60;57.90;;;;;;5053409;28;20123;-48
2021/08/13 08:21:50;;;;;;;5.68;2.65;;;30.40;58.30;;;;;;5036635;28;20049;-47
2021/08/13 08:24:16;;;;;;;7.60;3.15;;;30.50;58.50;;;;;;5053117;28;20043;-48
2021/08/13 08:26:42;;;;;;;5.07;3.47;;;30.40;58.70;;;;;;5053102;28;20059;-47
2021/08/13 08:29:08;;;;;;;7.72;3.63;;;30.50;59.90;;;;;;5053321;28;20087;-49
2021/08/13 08:31:34;;;;;;;8.32;3.70;;;30.90;59.10;;;;;;5019445;28;20496;-49
2021/08/13 08:34:00;;;;;;;5.97;3.17;;;31.20;59.00;;;;;;5019949;28;20051;-48
2021/08/13 08:36:25;;;;;;;7.70;3.50;;;31.10;58.50;;;;;;5036681;28;20044;-48
2021/08/13 08:38:51;;;;;;;6.10;3.38;;;31.50;58.50;;;;;;5052736;28;20045;-48
2021/08/13 08:41:17;;;;;;;7.35;3.60;;;31.80;58.20;;;;;;5053022;28;20033;-47
2021/08/13 08:43:43;;;;;;;9.65;3.35;;;32.00;57.60;;;;;;5052984;28;20044;-47
2021/08/13 08:46:10;;;;;;;3.92;2.70;;;31.70;56.40;;;;;;5036258;28;20051;-47
2021/08/13 08:48:39;;;;;;;5.28;3.10;;;31.20;55.70;;;;;;5032041;28;20481;-47
2021/08/13 08:51:07;;;;;;;5.32;3.20;;;31.70;56.30;;;;;;5069637;28;20120;-47
2021/08/13 08:53:34;;;;;;;5.53;3.67;;;31.90;55.90;;;;;;5054840;28;20060;-47
2021/08/13 08:56:01;;;;;;;5.53;3.05;;;32.20;56.00;;;;;;5054528;28;20079;-49
2021/08/13 08:58:31;;;;;;;6.07;3.47;;;32.10;56.40;;;;;;5069578;28;20056;-49
2021/08/13 09:00:58;;;;;;;6.22;3.28;;;32.40;55.20;;;;;;5054575;28;20102;-48
2021/08/13 09:03:24;;;;;;;5.28;3.42;;;32.70;55.10;;;;;;5052829;28;20037;-48
2021/08/13 09:05:50;;;;;;;6.93;3.40;;;32.70;55.40;;;;;;5052535;28;20090;-48
2021/08/13 09:08:17;;;;;;;4.50;3.33;;;33.40;54.40;;;;;;5054469;28;20400;-49
2021/08/13 09:10:43;;;;;;;7.80;3.38;;;33.60;86.80;;;;;;5054622;28;20358;-48
2021/08/13 09:13:10;;;;;;;5.22;2.85;;;33.40;53.50;;;;;;5054133;28;20107;-48
2021/08/13 09:15:38;;;;;;;7.07;3.75;;;32.50;54.10;;;;;;5053588;28;20048;-48
2021/08/13 09:18:18;;;;;;;5.90;3.63;;;32.90;55.10;;;;;;5068787;28;20060;-47
2021/08/13 09:20:51;;;;;;;4.18;3.22;;;33.00;54.50;;;;;;5068372;28;20040;-47
2021/08/13 09:23:41;;;;;;;4.60;3.17;;;33.00;54.00;;;;;;5053890;28;20024;-50
2021/08/13 09:26:20;;;;;;;5.03;3.65;;;33.10;55.10;;;;;;5047202;28;20504;-48
2021/08/13 09:28:53;;;;;;;7.57;3.33;;;33.60;54.50;;;;;;5052183;28;20033;-48
2021/08/13 09:31:29;;;;;;;11.02;4.00;;;34.20;63.30;;;;;;5074609;28;20136;-49
2021/08/13 09:33:56;;;;;;;4.80;3.47;;;;;;;;;;5053021;28;20025;-49
2021/08/13 09:36:25;;;;;;;6.40;3.35;;;34.50;54.50;;;;;;5053409;28;20125;-47
2021/08/13 09:39:09;;;;;;;7.68;3.50;;;34.80;53.30;;;;;;5053225;28;20102;-47
2021/08/13 09:41:52;;;;;;;5.63;3.42;;;33.90;52.90;;;;;;5053236;28;20485;-49
2021/08/13 09:44:40;;;;;;;5.57;3.30;;;33.90;52.90;;;;;;5053752;28;20090;-48
2021/08/13 09:47:08;;;;;;;6.20;3.63;;;33.50;53.40;;;;;;5053678;28;20115;-49
2021/08/13 09:49:39;;;;;;;5.93;3.35;;;33.60;53.10;;;;;;5053184;28;20035;-48
2021/08/13 09:52:15;;;;;;;5.88;3.58;;;34.00;52.90;;;;;;5053235;28;20098;-49
2021/08/13 09:54:42;;;;;;;4.78;3.63;;;33.60;52.70;;;;;;5053650;28;20063;-49
2021/08/13 09:57:13;;;;;;;6.13;3.50;;;33.50;53.60;;;;;;5068213;28;20044;-49
2021/08/13 09:59:56;;;;;;;4.65;2.92;;;34.00;53.00;;;;;;5067621;28;20132;-48
2021/08/13 10:02:22;;;;;;;7.93;5.85;;;34.50;53.50;;;;;;5051845;28;20127;-49
2021/08/13 10:04:49;;;;;;;7.13;3.78;;;;;;;;;;5053337;28;20028;-47
2021/08/13 10:07:20;;;;;;;4.75;3.97;;;35.00;52.60;;;;;;5052825;28;20053;-48
2021/08/13 10:09:48;;;;;;;10.18;3.90;;;34.80;51.70;;;;;;5052728;28;20099;-49
2021/08/13 10:12:14;;;;;;;7.55;3.03;;;35.00;52.20;;;;;;5052261;28;20025;-47
2021/08/13 10:14:42;;;;;;;6.35;3.60;;;34.70;51.50;;;;;;5052703;28;20028;-49
2021/08/13 10:17:21;;;;;;;5.50;3.45;;;35.00;52.60;;;;;;5049680;28;20096;-47
2021/08/13 10:19:48;;;;;;;5.00;4.45;;;34.80;52.90;;;;;;5052046;28;20040;-48
2021/08/13 10:22:16;;;;;;;5.43;3.97;;;34.70;52.60;;;;;;5065482;28;20148;-47
2021/08/13 10:24:43;;;;;;;6.40;3.67;;;34.90;52.10;;;;;;5051592;28;20083;-47
2021/08/13 10:27:10;;;;;;;5.00;3.13;;;;;;;;;;5055854;28;20155;-48
2021/08/13 10:29:36;;;;;;;6.85;3.53;;;36.00;61.80;;;;;;5055738;28;20108;-48
2021/08/13 10:32:02;;;;;;;8.68;3.80;;;35.90;52.00;;;;;;5070710;28;20443;-48
2021/08/13 10:34:29;;;;;;;7.70;3.92;;;;;;;;;;5053192;28;20080;-48
2021/08/13 10:36:55;;;;;;;7.70;3.72;;;35.90;50.80;;;;;;5055581;28;20059;-48
2021/08/13 10:39:23;;;;;;;7.13;4.28;;;35.90;51.40;;;;;;5057184;28;20507;-48
2021/08/13 10:41:55;;;;;;;5.75;3.42;;;35.80;52.70;;;;;;5055833;28;20041;-47
2021/08/13 10:44:24;;;;;;;7.15;4.00;;;;;;;;;;5057000;28;20477;-47
2021/08/13 10:46:52;;;;;;;7.32;3.63;;;36.50;51.10;;;;;;5056636;28;20035;-49
2021/08/13 10:49:20;;;;;;;9.07;3.80;;;36.40;80.20;;;;;;5071053;28;20052;-48
2021/08/13 10:51:59;;;;;;;4.85;3.67;;;35.80;72.90;;;;;;5057114;28;20036;-49
2021/08/13 10:54:37;;;;;;;4.55;4.00;;;35.80;72.80;;;;;;5056856;28;20039;-48
2021/08/13 10:57:04;;;;;;;9.45;3.72;;;36.10;74.00;;;;;;5055563;28;20032;-49
2021/08/13 10:59:41;;;;;;;5.00;3.80;;;35.70;73.40;;;;;;5055019;28;20056;-49
2021/08/13 11:02:16;;;;;;;7.13;4.10;;;35.90;72.70;;;;;;5056626;28;20108;-49
2021/08/13 11:04:43;;;;;;;12.55;4.22;;;35.70;71.90;;;;;;5055001;28;20037;-48
2021/08/13 11:07:10;;;;;;;8.27;4.22;;;35.80;71.70;;;;;;5056530;28;20068;-47
2021/08/13 11:09:37;;;;;;;7.57;4.20;;;35.90;71.90;;;;;;5056572;28;20550;-48
2021/08/13 11:12:14;;;;;;;10.32;3.92;;;36.30;72.50;;;;;;5056446;28;20029;-50
2021/08/13 11:14:52;;;;;;;4.30;3.10;;;36.40;73.50;;;;;;5056596;28;20036;-48
2021/08/13 11:17:37;;;;;;;5.47;3.42;;;35.90;71.30;;;;;;5056426;28;20508;-48
2021/08/13 11:20:06;;;;;;;6.05;3.60;;;36.00;70.80;;;;;;5056406;28;20476;-50
2021/08/13 11:22:37;;;;;;;7.00;3.72;;;36.00;70.60;;;;;;5037633;28;20107;-48
2021/08/13 11:25:03;;;;;;;;;;;;;;;;;;5056739;28;20488;-50
2021/08/13 11:27:29;;;;;;;5.80;3.63;;;36.70;59.10;;;;;;5056272;28;19916;-48
2021/08/13 11:29:54;;;;;;;6.93;3.70;;;35.80;51.80;;;;;;5056207;28;20033;-49
2021/08/13 11:32:29;;;;;;;5.07;3.55;;;36.50;50.70;;;;;;5056130;28;20484;-47
2021/08/13 11:35:04;;;;;;;6.00;3.33;;;;;;;;;;5056201;28;20029;-49
2021/08/13 11:37:42;;;;;;;5.72;3.80;;;37.00;50.40;;;;;;5054401;28;20045;-47
2021/08/13 11:40:13;;;;;;;8.18;3.70;;;36.40;51.10;;;;;;5055920;28;20392;-49
2021/08/13 11:42:54;;;;;;;5.38;3.88;;;35.60;51.30;;;;;;5056245;28;20033;-48
2021/08/13 11:45:21;;;;;;;9.85;3.80;;;36.00;51.50;;;;;;5055843;28;20473;-48
2021/08/13 11:47:47;;;;;;;6.43;4.53;;;35.70;51.10;;;;;;5055870;28;20037;-49
2021/08/13 11:50:13;;;;;;;5.70;4.20;;;36.00;51.30;;;;;;5055965;28;20029;-48
2021/08/13 11:52:46;;;;;;;6.07;4.10;;;36.00;51.60;;;;;;5055800;28;20036;-48
2021/08/13 11:55:21;;;;;;;6.78;3.88;;;36.00;50.20;;;;;;5055855;28;20043;-49
2021/08/13 11:57:47;;;;;;;6.97;3.92;;;36.00;50.10;;;;;;5053501;28;20090;-48
2021/08/13 12:00:35;;;;;;;7.63;3.83;;;36.40;50.20;;;;;;5055651;28;20039;-49
2021/08/13 12:03:01;;;;;;;5.82;3.83;;;36.50;50.60;;;;;;5055772;28;20087;-47
2021/08/13 12:05:30;;;;;;;7.00;3.90;;;36.40;50.70;;;;;;5055502;28;20079;-49
2021/08/13 12:08:01;;;;;;;5.10;3.70;;;36.70;50.40;;;;;;5055755;28;20055;-47
2021/08/13 12:10:27;;;;;;;5.97;3.97;;;36.60;50.30;;;;;;5055564;28;20060;-47
2021/08/13 12:12:54;;;;;;;5.82;3.85;;;36.90;50.00;;;;;;5070709;28;20041;-48
2021/08/13 12:15:28;;;;;;;7.75;4.13;;;36.90;51.70;;;;;;5055342;28;20033;-47
2021/08/13 12:17:54;;;;;;;6.25;3.67;;;36.50;49.90;;;;;;5055284;28;20066;-49
2021/08/13 12:20:19;;;;;;;6.55;4.10;;;36.30;50.10;;;;;;5055461;28;20041;-50
2021/08/13 12:22:45;;;;;;;9.70;4.22;;;36.40;49.90;;;;;;5055583;28;20128;-47
2021/08/13 12:25:12;;;;;;;5.78;3.70;;;36.40;49.40;;;;;;5055459;28;20060;-49
2021/08/13 12:27:39;;;;;;;6.00;3.58;;;36.50;49.50;;;;;;5056243;28;20028;-48
2021/08/13 12:30:22;;;;;;;6.75;4.20;;;36.50;49.00;;;;;;5055021;28;20035;-48
2021/08/13 12:32:51;;;;;;;5.70;3.70;;;36.60;49.50;;;;;;5053576;28;20044;-49
2021/08/13 12:35:17;;;;;;;5.38;3.90;;;37.10;49.90;;;;;;5055175;28;20389;-48
2021/08/13 12:37:43;;;;;;;7.72;3.85;;;36.90;48.60;;;;;;5068732;28;20049;-49
2021/08/13 12:40:12;;;;;;;5.90;4.47;;;36.60;48.70;;;;;;5055511;28;20033;-47
2021/08/13 12:42:40;;;;;;;6.25;4.13;;;36.50;49.00;;;;;;5055078;28;20449;-49
2021/08/13 12:45:11;;;;;;;7.97;4.07;;;36.80;48.80;;;;;;5055053;28;20507;-47
2021/08/13 12:47:39;;;;;;;7.03;4.18;;;37.10;48.80;;;;;;5019171;28;20052;-47
2021/08/13 12:50:06;;;;;;;5.05;3.30;;;37.20;48.10;;;;;;5069993;28;20048;-48
2021/08/13 12:52:32;;;;;;;8.80;3.22;;;37.10;47.90;;;;;;5036114;28;20049;-48
2021/08/13 12:54:58;;;;;;;8.55;3.85;;;36.30;47.80;;;;;;5054664;28;20033;-47
2021/08/13 12:57:24;;;;;;;8.23;3.92;;;36.70;48.80;;;;;;5054418;28;20036;-48